x

Ne Bahamas - 350 Nm Ene Of Nassau, Bahamas (41047) Wave Buoy

3:50am - Sat 27th Dec 2014 All times are UTC.

  • Sig Wave height 4.3ft
  • Swell Direction
  • Peak Period 7s
  • Average Period 6s
  • Wind
    18mph, 20mph gusts
  • Sea Temp 78°f
  • Air Temp 74°f
  • Sea Pressure 1022.1mb

More Historic Weather Station data

Upgrade to MSW Pro to gain access to the past 30 days of data for over 8000 Wavebouys and Weather Stations around the globe.

Join Pro

Comparision Forecast

View Surf forecast
   
Sat 12/27 3:50am 4.5ft 7s 6s 18 20 mph 1022.1mb 78f 74f
2:50am 4.5ft 13s 6s 11 16 mph 1022.5mb 78f 74f
1:50am 4.5ft 8s 6s 13 16 mph 1022.7mb 78f 73f
12:50am 4.5ft 9s 6s 18 22 mph 1022.4mb 78f 72f
Fri 12/26 11:50pm 4.5ft 8s 6s 11 13 mph 1021.9mb 78f 74f
10:50pm 3.5ft 8s 6s 9 11 mph 1021.8mb 78f 75f
9:50pm 4ft 8s 6s 13
mph
1021.1mb 78f 73f
8:50pm 4ft 9s 6s 13 16 mph 1020.9mb 78f 73f
7:50pm 3.5ft 7s 6s 13 16 mph 1020.5mb 78f 74f
6:50pm 3.5ft 8s 6s 9 13 mph 1020.6mb 78f 74f
5:50pm 3.5ft 7s 6s 7 9 mph 1020.9mb 78f 73f
4:50pm 3.5ft 8s 6s 13 16 mph 1021.5mb 78f 76f
3:50pm 3.5ft 8s 6s 11 13 mph 1022.3mb 78f 76f
2:50pm 3.5ft 8s 7s 9 11 mph 1022.7mb 78f 76f
1:50pm 3.5ft 8s 7s 7 9 mph 1022.5mb 78f 76f
12:50pm 3.5ft 9s 7s 9
mph
1022.2mb 78f 76f
11:50am 3.5ft 8s 6s 9 11 mph 1021.7mb 78f 76f
10:50am 3.5ft 8s 6s 9 11 mph 1020.9mb 78f 76f
9:50am 3.5ft 9s 6s 11 13 mph 1020.5mb 78f 76f
8:50am 3.5ft 11s 6s 9 11 mph 1020.8mb 78f 76f
7:50am 3.5ft 8s 6s 9 11 mph 1020.8mb 78f 76f
6:50am 3.5ft 9s 6s 9 11 mph 1020.9mb 78f 76f
5:50am 3.5ft 8s 6s 9 11 mph 1021.4mb 78f 76f
4:50am 3.5ft 9s 6s 9 11 mph 1021.6mb 78f 76f
3:50am 3.5ft 9s 6s 9 13 mph 1022mb 78f 76f
2:50am 3.5ft 9s 6s 9 11 mph 1022.4mb 78f 77f
1:50am 3.5ft 10s 6s 9 13 mph 1022.1mb 78f 77f
12:50am 3.5ft 9s 5s 11
mph
1022.1mb 78f 77f
Thu 12/25 11:50pm 3.5ft 9s 5s 11 13 mph 1021.8mb 78f 77f
10:50pm 3.5ft 9s 5s 11 13 mph 1021.6mb 78f 77f
9:50pm 4ft 9s 5s 13 16 mph 1021.1mb 78f 77f
8:50pm 4ft 10s 5s 13 16 mph 1020.7mb 78f 78f
7:50pm 4ft 9s 5s 13 16 mph 1020.5mb 78f 78f
6:50pm 4.5ft 9s 5s 16 20 mph 1020.2mb 78f 78f
5:50pm 4.5ft 9s 5s 18 20 mph 1020.2mb 78f 78f
4:50pm 4.5ft 9s 5s 18 22 mph 1020.9mb 78f 78f
3:50pm 4.5ft 9s 5s 18 20 mph 1021.6mb 78f 78f
2:50pm 4.5ft 8s 5s 16 20 mph 1022.1mb 78f 77f
1:50pm 4.5ft 9s 5s 16 20 mph 1021.9mb 78f 77f
12:50pm 4.5ft 7s 5s 18 22 mph 1021.3mb 78f 77f
11:50am 4.5ft 7s 5s 16 22 mph 1020.7mb 78f 77f
10:50am 4.5ft 8s 5s 18 20 mph 1019.8mb 78f 77f
9:50am 4.5ft 9s 5s 18 20 mph 1019.8mb 78f 77f
8:50am 4.5ft 10s 5s 18 20 mph 1019.4mb 78f 77f
7:50am 4.5ft 7s 5s 16 18 mph 1019.5mb 78f 77f
6:50am 4.5ft 8s 5s 18 22 mph 1019.3mb 78f 77f
5:50am 4ft 8s 5s 18 20 mph 1019.2mb 78f 77f
4:50am 4ft 9s 5s 16 18 mph 1019.8mb 78f 77f
3:50am 4ft 7s 5s 16 18 mph 1020.2mb 78f 77f
2:50am 4ft 6s 5s 16 18 mph 1020.3mb 78f 77f
1:50am 4ft 7s 5s 16
mph
1020.4mb 78f 77f
12:50am 4ft 9s 5s 13 16 mph 1020.3mb 78f 77f
Wed 12/24 11:50pm 4ft 10s 6s 16 18 mph 1019.9mb 78f 77f
10:50pm 4ft 10s 5s 16 18 mph 1019.2mb 78f 78f
9:50pm 4ft 7s 5s 16 18 mph 1018.8mb 78f 77f
8:50pm 4ft 9s 5s 16 18 mph 1018mb 78f 78f
7:50pm 4ft 9s 5s 16 18 mph 1017.7mb 78f 77f
6:50pm 4ft 9s 5s 18 22 mph 1018mb 78f 77f
5:50pm 3.5ft 7s 5s 13 18 mph 1018.7mb 78f 77f
4:50pm 4ft 9s 5s 13 16 mph 1019.3mb 78f 77f
3:50pm 4.5ft 9s 5s 16 18 mph 1019.7mb 78f 76f
2:50pm 5ft 8s 5s 18 22 mph 1020.3mb 78f 76f
1:50pm 4.5ft 8s 5s 18 20 mph 1020mb 78f 77f
12:50pm 5ft 7s 5s 20 25 mph 1019.2mb 78f 76f
11:50am 4.5ft 7s 5s 20 25 mph 1018.6mb 78f 75f
10:50am 5ft 9s 5s 22 27 mph 1018.3mb 78f 75f
9:50am 5ft 10s 5s 18 20 mph 1018mb 78f 77f
8:50am 4.5ft 7s 5s 18 20 mph 1018mb 78f 77f
7:50am 4.5ft 10s 5s 18 20 mph 1018.4mb 78f 77f
6:50am 4.5ft 9s 5s 18 20 mph 1018.7mb 78f 77f
5:50am 4.5ft 10s 5s 18 20 mph 1018.7mb 78f 77f
4:50am 4ft 9s 5s 18 20 mph 1019.1mb 78f 77f
3:50am 3.5ft 9s 4s 18 20 mph 1019.4mb 78f 77f
2:50am 3.5ft 9s 5s 18 22 mph 1019.2mb 78f 77f
1:50am 3.5ft 10s 5s 16 18 mph 1019.4mb 78f 77f
12:50am 3.5ft 10s 5s 11 16 mph 1019.7mb 78f 77f
Tue 12/23 11:50pm 3.5ft 10s 5s 13 16 mph 1018.9mb 78f 77f
10:50pm 3ft 9s 5s 13 16 mph 1018.6mb 78f 77f
9:50pm 3ft 10s 6s 11 13 mph 1018mb 78f 77f
8:50pm 3ft 10s 6s 11 13 mph 1018.2mb 79f 77f
7:50pm 3ft 9s 6s 7 9 mph 1018.6mb 79f 77f
6:50pm 3ft 9s 6s 7 9 mph 1018.5mb 79f 77f
5:50pm 3ft 9s 6s 7 9 mph 1018.7mb 78f 77f
4:50pm 3ft 9s 6s 7 9 mph 1019.5mb 78f 77f
3:50pm 3ft 10s 6s 7
mph
1020.4mb 78f 77f
2:50pm 3ft 10s 5s 7
mph
1020.6mb 78f 77f
1:50pm 3ft 10s 5s 9 11 mph 1020.4mb 78f 77f
12:50pm 3ft 11s 5s 7 9 mph 1019.7mb 78f 76f
11:50am 3.5ft 9s 5s 9 11 mph 1019mb 78f 76f
10:50am 3ft 9s 5s 11 13 mph 1018.9mb 78f 76f
9:50am 3.5ft 8s 5s 11 13 mph 1018.7mb 78f 76f
8:50am 3.5ft 8s 5s 11
mph
1018.5mb 78f 76f
7:50am 3.5ft 8s 5s 11 13 mph 1018.3mb 78f 76f
6:50am 3.5ft 8s 5s 11 13 mph 1018.6mb 78f 76f
5:50am 3.5ft 9s 5s 13 16 mph 1018.6mb 78f 76f
4:50am 3.5ft 9s 5s 13 16 mph 1019mb 78f 76f